Leeward Point Field
MUGM : rendu visible

Aérodrome :











RETROUVEZ-NOUS SUR...

 
LOGIN :

S'inscrire | Disclaimer

   EN    FR    IT 

 









Légende :    VFR   VFR Marginal   IFR   IFR Intensif   IFR Très Intensif
Visi : 
Plafond : 
>= 8 km
>= 3000ft
5 à 8 km
1000 à 3000 ft
1500m à 5 km
500 à 1000 ft
800 à 1500m
200 à 500 ft
< 800m
< 200 ft
Symboles :   Orages  Brouillard  Fortes neiges  Fortes précipitations  Vent > 20 kt






- Altitude de l'aérodrome : 56 ft
- Code IATA : NBW


MUGM - Leeward Point Field

DERNIER METAR :
  • 042051Z 12013KT 10SM FEW030 SCT090 BKN280 29/23 A2997 RMK AO2 SLP149 VCSH NW AND NE T02940233 56009 $

METARs EXPIRÉS :
  • 041951Z 11014KT 10SM FEW030 FEW090 SCT280 30/23 A2997 RMK AO2 SLP148 VCSH NW-N AND NE T03000233 $
  • 041851Z 12017KT 10SM FEW030 FEW090 SCT280 30/23 A2998 RMK AO2 SLP151 T03000233 $

TAF TAF MUGM
Valide du 04 à 15h jusqu'au 05 à 15h UTC


0415/0515 03006KT 9999 FEW030 FEW090 BKN280 QNH2997INS
BECMG 0416/0418 11012KT 9999 VCSH FEW035 SCT090 BKN280 QNH2994INS
BECMG 0422/0500 06009KT 9999 NSW FEW030 BKN280 QNH2994INS
FM050200 35006KT 9999 FEW030 BKN280 QNH2997INS T30/0417Z T22/0511Z FN20068



MET'MAP, la Météo Aéronautique d'un coup d'oeil ! - Copyright ORBIFLY Décembre 2007 - Disclaimer

ORBIFLY MET'MAP TEAM :

Programmation & Développement : Alexandra Zaïnal
Sur une idée originale de : Baudouin d'Aumeries
Assistance à la programmation : Marc-Olivier Méhu
Soutien technique & logistique : Manuel Goepfert

Contact : metmap@orbifly.com




SOURCES & CREDITS :

   NOAA       Earth
Advisory